Halesworth, United Kingdom
Current Conditions -  °F | °C
As of 6:20 PM on Wednesday 28 Jan 2015 (Local Time) from EGSD Reporting Station
Few Clouds Few Clouds  
Wind Chill: -3°   Ceiling: Unl
Heat Index:   Visibility: 6mi
Dew Point:   Wind: 21mph
Humidity: 81%   Direction: 260°W
Pressure: 29.44"   Gusts: 36mph
Location:  52.35°N, 1.5°E
Report Text: EGSD 281820Z 26018G31KT 9999 FEW015 03/M00 Q0997
Loading
Personal Weather Stations






























Interactive Weather Map New forecast layout! Learn more

10-Day Weather Forecast

Advertisements
Track Severe Weather on mobile